createdAt,value
2017-10-31T10:23:37.807Z,77.77
2017-10-31T10:26:05.334Z,76.58
2017-10-31T10:28:32.904Z,77.29
2017-10-31T10:31:00.476Z,77.03
2017-10-31T10:33:28.067Z,77.46
2017-10-31T10:35:56.450Z,77.73
2017-10-31T10:38:23.981Z,77.27
2017-10-31T10:40:51.565Z,77.49
2017-10-31T10:43:19.131Z,78.48
2017-10-31T10:45:46.692Z,77.86
2017-10-31T10:48:14.229Z,77.83
2017-10-31T10:50:41.809Z,78.33
2017-10-31T10:53:09.368Z,78.20
2017-10-31T10:55:36.904Z,78.63
2017-10-31T10:58:04.475Z,77.58
2017-10-31T11:00:44.777Z,77.38
2017-10-31T11:03:12.304Z,77.60
2017-10-31T11:05:40.057Z,77.23
2017-10-31T11:08:07.624Z,77.54
2017-10-31T11:10:35.296Z,77.44
2017-10-31T11:13:02.968Z,78.43
2017-10-31T11:15:30.521Z,78.04
2017-10-31T11:17:58.050Z,77.45
2017-10-31T11:20:25.617Z,77.46
2017-10-31T11:22:53.296Z,77.90
2017-10-31T11:25:20.865Z,77.73
2017-10-31T11:27:48.389Z,76.97
2017-10-31T11:30:16.995Z,76.19
2017-10-31T11:32:44.555Z,76.34
2017-10-31T11:35:12.090Z,75.78
2017-10-31T11:37:39.689Z,76.64
2017-10-31T11:40:07.257Z,76.42
2017-10-31T11:42:34.811Z,76.27
2017-10-31T11:45:02.844Z,76.64
2017-10-31T11:47:30.376Z,75.85
2017-10-31T11:49:57.908Z,76.90
2017-10-31T11:52:25.456Z,76.31
2017-10-31T11:54:54.166Z,75.68
2017-10-31T11:57:21.692Z,76.40
2017-10-31T11:59:49.370Z,76.41
2017-10-31T12:02:17.031Z,76.80
2017-10-31T12:04:44.556Z,77.15
2017-10-31T12:07:12.083Z,76.62
2017-10-31T12:09:39.621Z,76.50
2017-10-31T12:12:07.173Z,76.51
2017-10-31T12:14:34.705Z,75.85
2017-10-31T12:17:02.292Z,75.71
2017-10-31T12:19:29.857Z,76.11
2017-10-31T12:21:57.381Z,75.94
2017-10-31T12:24:25.849Z,76.51
2017-10-31T12:26:54.040Z,76.37
2017-10-31T12:29:21.616Z,76.31
2017-10-31T12:31:49.147Z,76.86
2017-10-31T12:34:16.680Z,76.40
2017-10-31T12:36:44.309Z,75.97
2017-10-31T12:39:11.849Z,75.29
2017-10-31T12:41:39.449Z,75.76
2017-10-31T12:44:06.979Z,75.57
2017-10-31T12:46:34.532Z,76.46
2017-10-31T12:49:02.113Z,77.23
2017-10-31T12:51:29.672Z,76.39
2017-10-31T12:53:57.197Z,76.38
2017-10-31T12:56:24.788Z,76.47
2017-10-31T12:58:52.316Z,77.08
2017-10-31T13:01:19.839Z,76.86
2017-10-31T13:03:47.774Z,75.69
2017-10-31T13:06:15.337Z,75.18
2017-10-31T13:08:42.927Z,75.45
2017-10-31T13:11:10.764Z,75.24
2017-10-31T13:13:38.296Z,75.54
2017-10-31T13:16:05.898Z,75.32
2017-10-31T13:18:33.433Z,75.01
2017-10-31T13:21:01.031Z,75.31
2017-10-31T13:23:28.685Z,75.36
2017-10-31T13:25:56.332Z,75.42
2017-10-31T13:28:25.201Z,76.18
2017-10-31T13:30:54.798Z,74.90
2017-10-31T13:33:22.901Z,75.23
2017-10-31T13:35:50.914Z,75.43
2017-10-31T13:38:20.844Z,76.03
2017-10-31T13:40:49.009Z,75.15
2017-10-31T13:43:18.109Z,75.84
2017-10-31T13:45:46.415Z,75.59
2017-10-31T13:48:14.499Z,75.79
2017-10-31T13:50:43.129Z,76.53
2017-10-31T13:53:11.429Z,76.01
2017-10-31T13:55:38.964Z,75.11
2017-10-31T13:58:06.597Z,75.19
2017-10-31T14:00:34.365Z,74.50
2017-10-31T14:03:02.465Z,74.08
2017-10-31T14:05:30.300Z,74.12
2017-10-31T14:07:58.055Z,73.81
2017-10-31T14:10:25.810Z,74.23
2017-10-31T14:12:54.252Z,74.82
2017-10-31T14:15:21.793Z,73.58
2017-10-31T14:17:49.355Z,73.63
2017-10-31T14:20:19.194Z,74.45
2017-10-31T14:22:47.576Z,75.63
2017-10-31T14:25:15.117Z,76.01
2017-10-31T14:27:43.038Z,75.84
2017-10-31T14:30:10.561Z,77.08
2017-10-31T14:32:38.095Z,76.93
2017-10-31T14:35:05.660Z,77.79
2017-10-31T14:37:33.222Z,77.61
2017-10-31T14:40:00.797Z,78.00
2017-10-31T14:42:28.428Z,78.49
2017-10-31T14:44:56.258Z,78.43
2017-10-31T14:47:23.853Z,78.52
2017-10-31T14:49:51.385Z,78.52
2017-10-31T14:52:18.977Z,78.70
2017-10-31T14:54:46.512Z,78.74
2017-10-31T14:57:14.037Z,78.89
2017-10-31T14:59:41.661Z,79.56
2017-10-31T15:02:09.192Z,79.93
2017-10-31T15:04:36.751Z,79.60
2017-10-31T15:07:04.281Z,79.99
2017-10-31T15:09:31.944Z,79.80
2017-10-31T15:11:59.469Z,79.98
2017-10-31T15:14:27.677Z,79.82
2017-10-31T15:16:55.257Z,80.08
2017-10-31T15:19:22.782Z,79.70
2017-10-31T15:21:50.340Z,80.50
2017-10-31T15:24:17.868Z,80.83
2017-10-31T15:26:45.434Z,81.39
2017-10-31T15:29:13.011Z,81.41
2017-10-31T15:31:40.569Z,81.54
2017-10-31T15:34:08.099Z,81.95
2017-10-31T15:36:35.657Z,82.23
2017-10-31T15:39:03.188Z,82.77
2017-10-31T15:41:30.754Z,83.24
2017-10-31T15:43:58.361Z,83.47
2017-10-31T15:46:25.889Z,83.77
2017-10-31T15:48:53.417Z,84.05
2017-10-31T15:51:21.035Z,84.10
2017-10-31T15:53:48.602Z,84.31
2017-10-31T15:56:17.189Z,84.48
2017-10-31T15:58:44.752Z,84.85
2017-10-31T16:01:12.280Z,85.01
2017-10-31T16:03:39.868Z,85.50
2017-10-31T16:06:07.437Z,85.30
2017-10-31T16:08:35.009Z,85.44
2017-10-31T16:11:02.544Z,86.12
2017-10-31T16:13:30.080Z,85.89
2017-10-31T16:15:57.605Z,86.41
2017-10-31T16:18:25.240Z,86.56
2017-10-31T16:20:52.802Z,86.72
2017-10-31T16:23:20.377Z,86.25
2017-10-31T16:25:47.908Z,86.39
2017-10-31T16:28:15.433Z,86.43
2017-10-31T16:30:42.997Z,86.44
2017-10-31T16:33:10.529Z,86.77
2017-10-31T16:35:38.056Z,87.20
2017-10-31T16:38:05.617Z,87.00
2017-10-31T16:40:33.641Z,87.34
2017-10-31T16:43:01.270Z,87.35
2017-10-31T16:45:28.836Z,88.06
2017-10-31T16:47:56.366Z,88.35
2017-10-31T16:50:23.896Z,89.19
2017-10-31T16:52:51.460Z,89.01
2017-10-31T16:55:19.693Z,89.28
2017-10-31T16:57:47.276Z,88.59
2017-10-31T17:00:14.875Z,88.61
2017-10-31T17:02:42.408Z,88.76
2017-10-31T17:05:09.953Z,88.94
2017-10-31T17:07:37.483Z,89.04
2017-10-31T17:10:05.012Z,88.84
2017-10-31T17:12:32.543Z,88.32
2017-10-31T17:15:00.135Z,88.28
2017-10-31T17:17:27.660Z,88.90
2017-10-31T17:19:55.229Z,88.48
2017-10-31T17:22:22.761Z,88.54
2017-10-31T17:24:50.341Z,89.13
2017-10-31T17:27:18.434Z,88.79
2017-10-31T17:29:45.977Z,88.71
2017-10-31T17:32:13.515Z,88.02
2017-10-31T17:34:41.049Z,87.58
2017-10-31T17:37:08.590Z,87.87
2017-10-31T17:39:36.463Z,88.32
2017-10-31T17:42:04.028Z,87.66
2017-10-31T17:44:31.553Z,87.94
2017-10-31T17:46:59.113Z,88.18
2017-10-31T17:49:26.676Z,88.04
2017-10-31T17:51:54.205Z,87.89
2017-10-31T17:54:21.784Z,87.81
2017-10-31T17:56:49.968Z,87.47
2017-10-31T17:59:17.652Z,86.62
2017-10-31T18:01:45.327Z,86.12
2017-10-31T18:04:12.895Z,86.70
2017-10-31T18:06:40.435Z,86.09
2017-10-31T18:09:07.964Z,86.40
2017-10-31T18:11:35.500Z,86.71
2017-10-31T18:14:03.034Z,86.33
2017-10-31T18:16:30.574Z,86.32
2017-10-31T18:18:58.114Z,86.15
2017-10-31T18:21:25.652Z,85.83
2017-10-31T18:23:53.240Z,85.43
2017-10-31T18:26:20.842Z,85.19
2017-10-31T18:28:48.897Z,85.08
2017-10-31T18:31:16.438Z,85.30
2017-10-31T18:33:43.962Z,85.18
2017-10-31T18:36:11.598Z,85.61
2017-10-31T18:38:39.121Z,85.33
2017-10-31T18:41:06.652Z,84.92
2017-10-31T18:43:34.183Z,85.06
2017-10-31T18:46:01.727Z,85.04
2017-10-31T18:48:29.257Z,85.59
2017-10-31T18:50:56.793Z,85.53
2017-10-31T18:53:24.330Z,85.71
2017-10-31T18:55:51.877Z,85.40
2017-10-31T18:58:22.005Z,85.27
2017-10-31T19:00:49.534Z,85.29
2017-10-31T19:03:17.052Z,85.44
2017-10-31T19:05:44.588Z,85.25
2017-10-31T19:08:12.233Z,85.19
2017-10-31T19:10:39.794Z,85.13
2017-10-31T19:13:08.280Z,85.23
2017-10-31T19:15:36.806Z,84.66
2017-10-31T19:18:04.408Z,84.89
2017-10-31T19:20:31.972Z,84.73
2017-10-31T19:22:59.542Z,85.15
2017-10-31T19:25:27.188Z,85.73
2017-10-31T19:27:54.728Z,85.71
2017-10-31T19:30:22.288Z,85.79
2017-10-31T19:32:49.875Z,85.23
2017-10-31T19:35:17.430Z,85.42
2017-10-31T19:37:45.009Z,85.84
2017-10-31T19:40:12.571Z,86.32
2017-10-31T19:42:40.098Z,86.14
2017-10-31T19:45:08.232Z,85.89
2017-10-31T19:47:35.938Z,85.98
2017-10-31T19:50:04.622Z,86.40
2017-10-31T19:52:32.206Z,85.79
2017-10-31T19:54:59.757Z,86.61
2017-10-31T19:57:27.294Z,87.34
2017-10-31T19:59:55.280Z,87.17
2017-10-31T20:02:22.815Z,87.14
2017-10-31T20:04:50.391Z,87.25
2017-10-31T20:07:18.073Z,87.15
2017-10-31T20:09:45.649Z,87.22
2017-10-31T20:12:13.177Z,86.72
2017-10-31T20:14:40.765Z,86.50
2017-10-31T20:17:08.777Z,87.33
2017-10-31T20:19:36.314Z,86.91
2017-10-31T20:22:03.844Z,86.96
2017-10-31T20:24:31.426Z,86.61
2017-10-31T20:26:58.970Z,87.05
2017-10-31T20:29:26.525Z,87.72
2017-10-31T20:31:54.059Z,86.89
2017-10-31T20:34:21.668Z,87.10
2017-10-31T20:36:49.206Z,86.87
2017-10-31T20:39:16.777Z,86.88
2017-10-31T20:41:44.320Z,87.01
2017-10-31T20:44:11.912Z,86.30
2017-10-31T20:46:39.878Z,86.32
2017-10-31T20:49:07.416Z,85.82
2017-10-31T20:51:35.004Z,85.42
2017-10-31T20:54:02.576Z,86.03
2017-10-31T20:56:30.312Z,85.70
2017-10-31T20:58:57.845Z,86.37
2017-10-31T21:01:25.689Z,85.98
2017-10-31T21:03:53.454Z,85.55
2017-10-31T21:06:21.010Z,85.98
2017-10-31T21:08:48.580Z,85.31
2017-10-31T21:11:16.117Z,85.29
2017-10-31T21:13:43.687Z,85.37
2017-10-31T21:16:11.223Z,85.22
2017-10-31T21:18:38.872Z,85.08
2017-10-31T21:21:06.412Z,84.56
2017-10-31T21:23:33.984Z,84.86
2017-10-31T21:26:01.527Z,84.76
2017-10-31T21:28:29.116Z,85.02
2017-10-31T21:30:56.682Z,85.04
2017-10-31T21:33:24.231Z,84.97
2017-10-31T21:35:51.763Z,84.80
2017-10-31T21:38:19.355Z,85.24
2017-10-31T21:40:46.898Z,85.04
2017-10-31T21:43:14.653Z,85.36
2017-10-31T21:45:42.195Z,85.62
2017-10-31T21:48:09.739Z,85.75
2017-10-31T21:50:37.357Z,85.69
2017-10-31T21:53:04.890Z,85.10
2017-10-31T21:55:32.465Z,85.63
2017-10-31T21:58:00.016Z,85.19
2017-10-31T22:00:27.560Z,85.34
2017-10-31T22:02:55.106Z,84.90
2017-10-31T22:05:22.685Z,84.50
2017-10-31T22:07:50.221Z,84.36
2017-10-31T22:10:17.846Z,84.83
2017-10-31T22:12:46.324Z,85.03
2017-10-31T22:15:13.989Z,84.30
2017-10-31T22:17:41.558Z,85.07
2017-10-31T22:20:09.120Z,84.33
2017-10-31T22:22:36.661Z,84.55
2017-10-31T22:25:04.233Z,83.88
2017-10-31T22:27:31.773Z,84.64
2017-10-31T22:29:59.347Z,84.19
2017-10-31T22:32:26.883Z,84.14
2017-10-31T22:34:54.679Z,84.00
2017-10-31T22:37:22.210Z,84.21
2017-10-31T22:39:49.780Z,84.47
2017-10-31T22:42:17.364Z,83.67
2017-10-31T22:44:44.907Z,84.54
2017-10-31T22:47:12.477Z,84.49
2017-10-31T22:49:40.100Z,84.10
2017-10-31T22:52:07.699Z,83.69
2017-10-31T22:54:35.281Z,83.46
2017-10-31T22:57:02.824Z,83.64
2017-10-31T22:59:30.381Z,84.21
2017-10-31T23:01:57.912Z,84.40
2017-10-31T23:04:25.444Z,83.63
2017-10-31T23:06:53.640Z,84.08
2017-10-31T23:09:21.180Z,84.73
2017-10-31T23:11:48.745Z,83.83
2017-10-31T23:14:16.281Z,83.73
2017-10-31T23:16:43.848Z,83.52
2017-10-31T23:19:11.428Z,83.93
2017-10-31T23:21:38.957Z,84.65
2017-10-31T23:24:06.490Z,83.46
2017-10-31T23:26:34.070Z,84.09
2017-10-31T23:29:01.713Z,84.02
2017-10-31T23:31:29.254Z,83.97
2017-10-31T23:33:56.785Z,83.09
2017-10-31T23:36:24.899Z,83.14
2017-10-31T23:38:53.583Z,83.22
2017-10-31T23:41:21.125Z,82.67
2017-10-31T23:43:48.652Z,83.38
2017-10-31T23:46:16.376Z,83.98
2017-10-31T23:48:43.909Z,83.27
2017-10-31T23:51:11.453Z,83.52
2017-10-31T23:53:38.985Z,84.51
2017-10-31T23:56:07.212Z,83.37
2017-10-31T23:58:34.802Z,83.17
